Hudson, New Hampshire
Current Conditions -  °F | °C
As of 4:51 PM on Friday 31 Oct 2014 (Local Time) from KASH Reporting Station
Overcast Overcast  
Wind Chill: 51°   Ceiling: 4100
Heat Index: 51°   Visibility: 10mi
Dew Point: 36°   Wind: 7mph
Humidity: 57%   Direction: 120°ESE
Pressure: 30"   Gusts: NA
Location:  42.76°N, 71.44°W
Report Text: KASH 312051Z 12006KT 10SM BKN041 OVC055 11/02 A3000 RMK AO2 55001 T01050022 SLP412
Loading
Personal Weather Stations






























Interactive Weather Map
Tropical Storm Tracking
New forecast layout! Learn more

10-Day Weather Forecast

Advertisements
Track Severe Weather on mobile